Time;durP1;ratioP1;P1;durP2;ratioP2;P2;SDS_P1;SDS_P2;PMS_P1;PMS_P2;Temp;Humidity;BMP_temperature;BMP_pressure;BME280_temperature;BME280_humidity;BME280_pressure;Samples;Min_cycle;Max_cycle;Signal;HPM_P1;HPM_P2
2022/12/24 00:02:21;;;;;;;7.75;2.83;;;;;;;10.68;100.00;99675.19;5014957;28;20226;-76
2022/12/24 00:04:49;;;;;;;9.57;3.35;;;;;;;10.78;100.00;99669.16;5020117;28;20265;-76
2022/12/24 00:07:16;;;;;;;7.60;2.25;;;;;;;10.89;100.00;99676.63;5022626;28;20227;-76
2022/12/24 00:09:42;;;;;;;7.35;2.53;;;;;;;10.89;100.00;99679.31;5023974;28;20203;-75
2022/12/24 00:12:09;;;;;;;8.35;2.78;;;;;;;10.88;100.00;99669.50;5024155;28;20233;-76
2022/12/24 00:14:35;;;;;;;8.90;2.97;;;;;;;10.86;100.00;99668.72;5025550;28;20233;-76
2022/12/24 00:17:02;;;;;;;13.23;2.83;;;;;;;10.88;100.00;99682.97;5017683;28;20207;-75
2022/12/24 00:19:28;;;;;;;7.88;1.90;;;;;;;11.11;100.00;99668.16;5015033;28;20236;-75
2022/12/24 00:21:56;;;;;;;7.68;2.05;;;;;;;11.12;100.00;99664.47;5017138;28;20321;-75
2022/12/24 00:24:23;;;;;;;8.15;2.22;;;;;;;11.09;100.00;99675.44;5017853;28;20208;-75
2022/12/24 00:26:49;;;;;;;6.97;2.70;;;;;;;11.06;100.00;99681.03;5017349;28;20202;-75
2022/12/24 00:29:16;;;;;;;7.10;2.38;;;;;;;11.01;100.00;99685.78;5016354;28;20203;-75
2022/12/24 00:31:42;;;;;;;6.82;2.50;;;;;;;10.95;100.00;99686.19;5015128;28;20713;-76
2022/12/24 00:34:09;;;;;;;9.50;2.83;;;;;;;10.90;100.00;99697.22;5014505;28;20579;-75
2022/12/24 00:36:35;;;;;;;10.10;2.75;;;;;;;10.83;100.00;99693.13;5014575;28;20289;-76
2022/12/24 00:39:03;;;;;;;6.43;2.45;;;;;;;10.82;100.00;99707.56;5014756;28;20598;-75
2022/12/24 00:41:30;;;;;;;12.63;3.15;;;;;;;10.74;100.00;99704.41;5015735;28;20222;-76
2022/12/24 00:43:58;;;;;;;7.97;2.50;;;;;;;10.69;100.00;99707.38;5016435;28;20199;-76
2022/12/24 00:46:26;;;;;;;9.55;2.88;;;;;;;10.63;100.00;99700.53;5015043;28;20217;-75
2022/12/24 00:48:53;;;;;;;8.32;2.65;;;;;;;10.67;100.00;99711.13;5016637;28;20637;-76
2022/12/24 00:51:20;;;;;;;12.00;3.20;;;;;;;10.71;100.00;99712.69;5014522;28;20708;-76
2022/12/24 00:53:47;;;;;;;8.82;2.90;;;;;;;10.60;100.00;99713.28;5014433;28;20217;-75
2022/12/24 00:56:15;;;;;;;13.15;2.92;;;;;;;10.54;100.00;99716.34;5017937;28;20207;-75
2022/12/24 00:58:42;;;;;;;10.68;2.90;;;;;;;10.54;100.00;99717.22;5014416;28;20234;-74
2022/12/24 01:01:08;;;;;;;11.52;3.28;;;;;;;10.53;100.00;99711.91;5015191;28;20691;-77
2022/12/24 01:03:35;;;;;;;6.72;2.50;;;;;;;10.53;100.00;99712.75;5016200;28;20658;-78
2022/12/24 01:06:02;;;;;;;8.15;2.33;;;;;;;10.54;100.00;99716.34;5016400;28;20211;-75
2022/12/24 01:08:28;;;;;;;13.50;3.00;;;;;;;10.53;100.00;99723.53;5016773;28;20210;-76
2022/12/24 01:10:55;;;;;;;9.13;2.63;;;;;;;10.61;100.00;99723.13;5017908;28;20306;-77
2022/12/24 01:13:23;;;;;;;7.68;2.92;;;;;;;10.56;100.00;99728.78;5016674;28;20211;-75
2022/12/24 01:15:49;;;;;;;10.52;3.22;;;;;;;10.61;100.00;99734.75;5015259;28;20545;-75
2022/12/24 01:18:16;;;;;;;9.32;2.70;;;;;;;10.62;100.00;99738.31;5014248;28;20229;-76
2022/12/24 01:20:43;;;;;;;5.13;2.63;;;;;;;10.61;100.00;99750.91;5014400;28;20202;-76
2022/12/24 01:23:09;;;;;;;10.77;2.55;;;;;;;10.61;100.00;99756.28;5015067;28;20209;-77
2022/12/24 01:25:37;;;;;;;9.10;2.33;;;;;;;10.57;100.00;99762.81;5026693;28;20266;-77
2022/12/24 01:28:04;;;;;;;14.70;3.88;;;;;;;10.47;100.00;99756.19;5026018;28;20203;-77
2022/12/24 01:30:32;;;;;;;8.07;2.72;;;;;;;10.47;100.00;99774.16;5023116;28;20199;-75
2022/12/24 01:32:58;;;;;;;8.43;2.60;;;;;;;10.41;100.00;99778.94;5016025;28;20206;-75
2022/12/24 01:35:25;;;;;;;6.72;2.35;;;;;;;10.41;100.00;99778.94;5017155;28;20578;-75
2022/12/24 01:37:52;;;;;;;7.97;2.60;;;;;;;10.34;100.00;99777.53;5014907;28;20209;-75
2022/12/24 01:45:51;;;;;;;9.25;2.90;;;;;;;10.27;100.00;99781.47;5017391;28;20595;-74
2022/12/24 01:48:24;;;;;;;10.98;3.03;;;;;;;10.30;100.00;99784.03;5016553;28;20202;-77
2022/12/24 01:51:02;;;;;;;7.68;2.08;;;;;;;10.31;100.00;99795.66;5013924;28;20603;-76
2022/12/24 01:53:29;;;;;;;8.75;2.72;;;;;;;10.27;100.00;99792.25;5013441;28;20301;-76
2022/12/24 01:55:56;;;;;;;7.60;2.65;;;;;;;10.20;100.00;99813.22;5013504;28;20210;-75
2022/12/24 01:58:25;;;;;;;14.18;3.47;;;;;;;10.18;100.00;99823.19;5013809;28;20228;-76
2022/12/24 02:00:53;;;;;;;12.00;2.75;;;;;;;10.23;100.00;99822.97;5013715;28;20226;-75
2022/12/24 02:03:20;;;;;;;10.77;2.60;;;;;;;10.22;100.00;99823.88;5013505;28;20218;-75
2022/12/24 02:05:49;;;;;;;8.68;2.65;;;;;;;10.17;100.00;99828.66;5013666;28;20213;-76
2022/12/24 02:08:17;;;;;;;5.68;2.50;;;;;;;10.10;100.00;99828.09;5013709;28;20206;-75
2022/12/24 02:10:44;;;;;;;13.23;3.10;;;;;;;10.14;100.00;99829.69;5024809;28;20202;-75
2022/12/24 02:13:12;;;;;;;13.60;4.00;;;;;;;10.07;100.00;99830.09;5020826;28;20576;-74
2022/12/24 02:15:51;;;;;;;9.32;2.85;;;;;;;10.01;100.00;99840.22;5017549;28;20686;-75
2022/12/24 02:18:25;;;;;;;6.55;2.38;;;;;;;10.01;100.00;99850.09;5012648;28;20202;-75
2022/12/24 02:21:19;;;;;;;10.80;2.55;;;;;;;10.07;100.00;99843.56;5013577;28;20222;-77
2022/12/24 02:24:22;;;;;;;8.88;4.25;;;;;;;10.04;100.00;99847.28;5021244;28;20187;-76
2022/12/24 02:27:07;;;;;;;9.65;2.67;;;;;;;10.06;100.00;99856.13;5008663;28;20217;-76
2022/12/24 02:30:01;;;;;;;11.52;2.65;;;;;;;10.06;100.00;99848.03;5013941;28;20187;-76
2022/12/24 02:32:35;;;;;;;8.38;2.85;;;;;;;10.07;100.00;99855.19;5014269;28;20716;-76
2022/12/24 02:35:07;;;;;;;9.02;2.58;;;;;;;10.17;100.00;99856.44;5013273;28;20557;-76
2022/12/24 02:37:39;;;;;;;10.30;3.22;;;;;;;10.25;100.00;99853.34;5012997;28;20198;-76
2022/12/24 02:40:09;;;;;;;8.50;2.40;;;;;;;10.25;100.00;99860.56;5017695;28;20591;-76
2022/12/24 02:42:40;;;;;;;9.10;2.70;;;;;;;10.31;100.00;99865.63;5017314;28;20223;-76
2022/12/24 02:45:11;;;;;;;10.43;3.03;;;;;;;10.39;100.00;99871.50;5017350;28;20202;-75
2022/12/24 02:47:39;;;;;;;10.23;2.50;;;;;;;10.33;100.00;99858.34;5017074;28;20187;-76
2022/12/24 02:50:09;;;;;;;12.77;3.05;;;;;;;10.23;100.00;99864.19;5017848;28;20313;-77
2022/12/24 02:52:38;;;;;;;8.90;3.15;;;;;;;10.32;100.00;99878.16;5018521;28;20226;-75
2022/12/24 02:55:09;;;;;;;11.45;2.70;;;;;;;10.35;100.00;99877.97;5017979;28;20210;-75
2022/12/24 02:57:54;;;;;;;8.10;2.78;;;;;;;10.34;100.00;99882.50;5017510;28;20687;-76
2022/12/24 03:00:23;;;;;;;7.88;2.63;;;;;;;10.28;100.00;99890.00;5017955;28;20218;-77
2022/12/24 03:03:12;;;;;;;11.43;2.45;;;;;;;10.33;100.00;99894.19;5017741;28;20723;-77
2022/12/24 03:05:45;;;;;;;11.23;3.58;;;;;;;10.40;100.00;99894.75;5019073;28;20282;-76
2022/12/24 03:08:16;;;;;;;9.43;3.03;;;;;;;10.45;100.00;99903.47;5029458;28;20274;-75
2022/12/24 03:10:51;;;;;;;9.65;2.60;;;;;;;10.41;100.00;99902.75;5034164;28;20278;-77
2022/12/24 03:13:19;;;;;;;8.88;2.35;;;;;;;10.46;100.00;99915.97;5033097;28;20225;-77
2022/12/24 03:15:48;;;;;;;7.93;2.50;;;;;;;10.48;100.00;99919.47;5033053;28;20208;-75
2022/12/24 03:18:18;;;;;;;7.32;2.67;;;;;;;10.47;100.00;99911.44;5032231;28;20226;-75
2022/12/24 03:20:50;;;;;;;12.68;2.60;;;;;;;10.45;100.00;99903.47;5029089;28;20258;-76
2022/12/24 03:23:17;;;;;;;15.40;2.78;;;;;;;10.49;100.00;99920.31;5019092;28;20672;-77
2022/12/24 03:25:44;;;;;;;10.63;3.00;;;;;;;10.39;100.00;99903.78;5018347;28;20678;-76
2022/12/24 03:28:14;;;;;;;12.35;4.35;;;;;;;10.35;100.00;99915.66;5016566;28;20198;-76
2022/12/24 03:30:42;;;;;;;14.85;3.85;;;;;;;10.37;100.00;99916.47;5017168;28;20206;-78
2022/12/24 03:33:10;;;;;;;15.38;3.60;;;;;;;10.32;100.00;99919.41;5017222;28;20789;-75
2022/12/24 03:35:37;;;;;;;10.90;2.83;;;;;;;10.32;100.00;99919.41;5017010;28;20207;-76
2022/12/24 03:38:03;;;;;;;8.15;2.75;;;;;;;10.35;100.00;99921.06;5015737;28;20729;-75
2022/12/24 03:40:30;;;;;;;15.50;3.47;;;;;;;10.36;100.00;99914.72;5015862;28;20313;-75
2022/12/24 03:42:57;;;;;;;7.32;2.60;;;;;;;10.38;100.00;99932.53;5015513;28;20226;-75
2022/12/24 03:45:23;;;;;;;9.73;2.45;;;;;;;10.42;100.00;99923.34;5017914;28;20203;-77
2022/12/24 03:47:50;;;;;;;9.85;2.15;;;;;;;10.54;100.00;99927.22;5020606;28;20210;-76
2022/12/24 03:50:18;;;;;;;6.93;2.10;;;;;;;10.56;100.00;99932.50;5021166;28;20205;-75
2022/12/24 03:52:44;;;;;;;5.30;2.20;;;;;;;10.57;100.00;99932.44;5021768;28;20230;-75
2022/12/24 03:55:11;;;;;;;7.60;2.10;;;;;;;10.52;100.00;99937.19;5023575;28;20204;-75
2022/12/24 03:57:37;;;;;;;10.40;2.83;;;;;;;10.62;100.00;99942.97;5020923;28;20209;-78
2022/12/24 04:00:05;;;;;;;7.55;2.10;;;;;;;10.56;100.00;99941.47;5023561;28;20226;-77
2022/12/24 04:02:32;;;;;;;6.80;2.38;;;;;;;10.58;100.00;99957.53;5023462;28;20233;-75
2022/12/24 04:04:59;;;;;;;9.82;2.90;;;;;;;10.58;100.00;99949.44;5023076;28;20203;-75
2022/12/24 04:07:27;;;;;;;9.57;3.15;;;;;;;10.58;100.00;99950.34;5022771;28;20199;-75
2022/12/24 04:09:53;;;;;;;11.23;2.60;;;;;;;10.48;100.00;99962.53;5023952;28;20198;-75
2022/12/24 04:12:20;;;;;;;12.35;2.83;;;;;;;10.52;100.00;99964.13;5032651;28;20293;-77
2022/12/24 04:14:46;;;;;;;8.32;2.50;;;;;;;10.56;100.00;99962.13;5033308;28;20270;-76
2022/12/24 04:17:13;;;;;;;6.88;2.20;;;;;;;10.61;100.00;99970.84;5022771;28;20198;-76
2022/12/24 04:19:39;;;;;;;8.55;2.50;;;;;;;10.54;100.00;99981.06;5021431;28;20222;-77
2022/12/24 04:22:06;;;;;;;11.43;2.90;;;;;;;10.55;100.00;99974.72;5021621;28;20233;-74
2022/12/24 04:24:34;;;;;;;12.07;2.67;;;;;;;10.51;100.00;99989.28;5020388;28;20213;-77
2022/12/24 04:27:00;;;;;;;6.85;2.40;;;;;;;10.55;100.00;99990.88;5018977;28;20199;-76
2022/12/24 04:29:27;;;;;;;16.38;2.30;;;;;;;10.56;100.00;99986.34;5019049;28;20198;-75
2022/12/24 04:31:53;;;;;;;6.32;2.70;;;;;;;10.49;100.00;99990.31;5020611;28;20229;-76
2022/12/24 04:34:20;;;;;;;9.55;3.15;;;;;;;10.47;100.00;99993.13;5018594;28;20208;-76
2022/12/24 04:36:46;;;;;;;9.82;2.25;;;;;;;10.55;100.00;99990.00;5017139;28;20229;-77
2022/12/24 04:39:13;;;;;;;10.70;3.03;;;;;;;10.50;100.00;99987.56;5017602;28;20226;-76
2022/12/24 04:41:41;;;;;;;12.40;3.28;;;;;;;10.49;100.00;99983.13;5016975;28;20257;-76
2022/12/24 04:44:09;;;;;;;6.90;2.72;;;;;;;10.49;100.00;99987.63;5016440;28;20202;-75
2022/12/24 04:46:36;;;;;;;5.40;2.53;;;;;;;10.45;100.00;99976.16;5015697;28;20294;-76
2022/12/24 04:49:02;;;;;;;7.82;2.85;;;;;;;10.40;100.00;99980.91;5016188;28;20207;-76
2022/12/24 04:51:29;;;;;;;13.88;3.25;;;;;;;10.40;100.00;99980.91;5019589;28;20242;-78
2022/12/24 04:53:56;;;;;;;8.65;3.20;;;;;;;10.37;100.00;99976.53;5021099;28;20206;-75
2022/12/24 04:56:26;;;;;;;11.23;2.70;;;;;;;10.41;100.00;99985.34;5020714;28;20274;-77
2022/12/24 04:58:55;;;;;;;13.70;2.50;;;;;;;10.39;100.00;99979.16;5019407;28;20195;-77
2022/12/24 05:01:23;;;;;;;8.75;2.78;;;;;;;10.34;100.00;99992.88;5019199;28;20232;-76
2022/12/24 05:03:50;;;;;;;8.88;2.85;;;;;;;10.35;100.00;99985.66;5015965;28;20202;-75
2022/12/24 05:06:18;;;;;;;12.32;2.38;;;;;;;10.37;100.00;99995.38;5015147;28;20214;-74
2022/12/24 05:08:45;;;;;;;8.07;3.75;;;;;;;10.31;100.00;99987.66;5017324;28;20290;-73
2022/12/24 05:11:14;;;;;;;8.65;2.70;;;;;;;10.38;100.00;99994.44;5020625;28;20708;-74
2022/12/24 05:13:41;;;;;;;14.18;3.17;;;;;;;10.34;100.00;99987.47;5018254;28;20270;-75
2022/12/24 05:16:10;;;;;;;15.25;3.20;;;;;;;10.39;100.00;99987.25;5017225;28;20281;-75
2022/12/24 05:18:36;;;;;;;8.73;3.53;;;;;;;10.29;100.00;99999.41;5016768;28;20202;-74
2022/12/24 05:21:03;;;;;;;8.80;2.65;;;;;;;10.28;100.00;99990.44;5016746;28;20309;-76
2022/12/24 05:26:22;;;;;;;11.00;2.95;;;;;;;10.19;100.00;99983.69;5016167;28;20249;-75
2022/12/24 05:28:49;;;;;;;14.00;3.45;;;;;;;10.09;100.00;99993.19;5014931;28;20566;-74
2022/12/24 05:31:18;;;;;;;11.45;3.15;;;;;;;10.07;100.00;99984.31;5016977;28;20229;-76
2022/12/24 05:33:44;;;;;;;13.20;2.80;;;;;;;10.04;100.00;99987.19;5018732;28;20204;-74
2022/12/24 05:36:11;;;;;;;13.40;3.78;;;;;;;10.02;100.00;99999.84;5018336;28;20209;-74
2022/12/24 05:38:38;;;;;;;9.23;2.80;;;;;;;9.96;100.00;99986.69;5015929;28;20202;-76
2022/12/24 05:41:05;;;;;;;19.17;3.30;;;;;;;9.99;100.00;99994.59;5014995;28;20234;-76
2022/12/24 05:43:32;;;;;;;9.75;3.15;;;;;;;9.94;100.00;99993.94;5015109;28;20213;-75
2022/12/24 05:45:59;;;;;;;11.30;2.50;;;;;;;9.97;100.00;99988.41;5017329;28;20198;-75
2022/12/24 05:48:27;;;;;;;8.98;2.85;;;;;;;9.94;100.00;99988.56;5023678;28;20205;-75
2022/12/24 05:50:54;;;;;;;13.77;3.15;;;;;;;9.96;100.00;99994.75;5020857;28;20305;-77
2022/12/24 05:53:21;;;;;;;10.43;2.60;;;;;;;10.00;100.00;99988.28;5017963;28;20207;-74
2022/12/24 05:55:48;;;;;;;7.93;2.40;;;;;;;9.99;100.00;99998.16;5018038;28;20208;-73
2022/12/24 05:58:15;;;;;;;6.70;2.22;;;;;;;10.07;100.00;100002.28;5015740;28;20210;-75
2022/12/24 06:00:41;;;;;;;7.25;2.25;;;;;;;10.10;100.00;99994.91;5015578;28;20226;-75
2022/12/24 06:03:08;;;;;;;8.70;2.30;;;;;;;10.12;100.00;100000.25;5014661;28;20194;-74
2022/12/24 06:05:36;;;;;;;6.72;2.00;;;;;;;10.14;100.00;100006.41;5015250;28;20578;-74
2022/12/24 06:08:02;;;;;;;6.78;2.70;;;;;;;10.11;100.00;100007.44;5013959;28;20751;-75
2022/12/24 06:10:29;;;;;;;6.65;2.40;;;;;;;10.12;100.00;100011.88;5023350;28;20207;-75
2022/12/24 06:12:55;;;;;;;17.20;2.72;;;;;;;10.13;100.00;100016.31;5030953;28;20199;-75
2022/12/24 06:15:22;;;;;;;12.35;3.28;;;;;;;10.15;100.00;100026.97;5033395;28;20198;-75
2022/12/24 06:17:48;;;;;;;11.68;2.95;;;;;;;10.14;100.00;100023.44;5018924;28;20208;-77
2022/12/24 06:20:15;;;;;;;6.13;2.83;;;;;;;10.18;100.00;100025.03;5018133;28;20696;-76
2022/12/24 06:22:43;;;;;;;17.63;5.20;;;;;;;10.15;100.00;100027.88;5018116;28;20230;-75
2022/12/24 06:25:09;;;;;;;12.95;3.00;;;;;;;10.14;100.00;100025.25;5019016;28;20206;-75
2022/12/24 06:27:36;;;;;;;14.63;3.72;;;;;;;10.13;100.00;100016.31;5017780;28;20198;-76
2022/12/24 06:30:03;;;;;;;8.43;3.53;;;;;;;10.15;100.00;100035.06;5018576;28;20195;-75
2022/12/24 06:32:29;;;;;;;11.90;3.20;;;;;;;10.19;100.00;100023.19;5018556;28;20223;-76
2022/12/24 06:34:56;;;;;;;10.38;2.67;;;;;;;10.26;100.00;100026.47;5018903;28;20560;-75
2022/12/24 06:37:22;;;;;;;15.55;4.55;;;;;;;10.26;100.00;100031.84;5018247;28;20214;-75
2022/12/24 06:39:50;;;;;;;12.95;2.90;;;;;;;10.30;100.00;100038.84;5018254;28;20228;-76
2022/12/24 06:42:17;;;;;;;10.48;2.75;;;;;;;10.30;100.00;100037.03;5018869;28;20249;-75
2022/12/24 06:44:43;;;;;;;13.02;3.20;;;;;;;10.34;100.00;100038.63;5018088;28;20201;-75
2022/12/24 06:47:10;;;;;;;13.35;4.35;;;;;;;10.30;100.00;100034.34;5017934;28;20203;-75
2022/12/24 06:49:36;;;;;;;10.02;3.05;;;;;;;10.34;100.00;100040.44;5018525;28;20206;-75
2022/12/24 06:52:03;;;;;;;9.95;3.70;;;;;;;10.37;100.00;100046.53;5026476;28;20223;-75
2022/12/24 06:54:30;;;;;;;11.52;2.70;;;;;;;10.39;100.00;100044.63;5025349;28;20202;-77
2022/12/24 06:56:57;;;;;;;8.30;3.10;;;;;;;10.37;100.00;100057.28;5022047;28;20207;-74
2022/12/24 06:59:24;;;;;;;9.18;3.72;;;;;;;10.40;100.00;100054.47;5018175;28;20218;-76
2022/12/24 07:01:50;;;;;;;12.10;2.80;;;;;;;10.43;100.00;100058.81;5017077;28;20242;-75
2022/12/24 07:04:17;;;;;;;13.20;3.40;;;;;;;10.40;100.00;100061.66;5017012;28;20295;-75
2022/12/24 07:06:44;;;;;;;12.68;3.85;;;;;;;10.31;100.00;100060.31;5017363;28;20203;-75
2022/12/24 07:09:12;;;;;;;10.68;3.58;;;;;;;10.35;100.00;100059.19;5015956;28;20203;-75
2022/12/24 07:11:39;;;;;;;12.35;3.50;;;;;;;10.35;100.00;100069.09;5019101;28;20290;-76
2022/12/24 07:14:07;;;;;;;13.30;3.15;;;;;;;10.42;100.00;100075.91;5019601;28;20708;-77
2022/12/24 07:16:33;;;;;;;16.02;4.03;;;;;;;10.47;100.00;100073.00;5018367;28;20206;-75
2022/12/24 07:19:00;;;;;;;13.48;3.97;;;;;;;10.45;100.00;100078.47;5015390;28;20214;-75
2022/12/24 07:21:26;;;;;;;11.95;3.63;;;;;;;10.45;100.00;100075.78;5017192;28;20229;-75
2022/12/24 07:23:53;;;;;;;8.68;3.50;;;;;;;10.42;100.00;100075.91;5016370;28;20579;-75
2022/12/24 07:26:19;;;;;;;15.18;3.67;;;;;;;10.44;100.00;100091.03;5015514;28;20206;-77
2022/12/24 07:28:46;;;;;;;14.80;4.30;;;;;;;10.45;100.00;100091.94;5015718;28;20209;-76
2022/12/24 07:31:14;;;;;;;15.93;4.07;;;;;;;10.48;100.00;100099.84;5016258;28;20234;-75
2022/12/24 07:33:40;;;;;;;21.60;4.43;;;;;;;10.53;100.00;100111.25;5016782;28;20213;-75
2022/12/24 07:36:08;;;;;;;12.70;3.35;;;;;;;10.52;100.00;100116.72;5016859;28;20206;-76
2022/12/24 07:38:35;;;;;;;11.82;3.90;;;;;;;10.54;100.00;100113.00;5016973;28;20210;-76
2022/12/24 07:41:02;;;;;;;10.02;3.20;;;;;;;10.53;100.00;100110.38;5015592;28;20630;-75
2022/12/24 07:43:28;;;;;;;15.52;4.00;;;;;;;10.56;100.00;100121.88;5016867;28;20218;-76
2022/12/24 07:45:56;;;;;;;14.02;3.63;;;;;;;10.52;100.00;100125.69;5015741;28;20202;-75
2022/12/24 07:48:26;;;;;;;11.82;3.95;;;;;;;10.51;100.00;100128.44;5015205;28;20257;-75
2022/12/24 07:50:53;;;;;;;14.13;5.35;;;;;;;10.52;100.00;100131.06;5016512;28;20704;-75
2022/12/24 07:53:20;;;;;;;11.80;3.13;;;;;;;10.55;100.00;100133.59;5016573;28;20203;-75
2022/12/24 07:55:46;;;;;;;11.60;4.13;;;;;;;10.52;100.00;100131.06;5016795;28;20203;-75
2022/12/24 07:58:13;;;;;;;8.20;4.22;;;;;;;10.56;100.00;100138.03;5019967;28;20555;-77
2022/12/24 08:00:39;;;;;;;14.63;3.55;;;;;;;10.57;100.00;100144.28;5019743;28;20222;-77
2022/12/24 08:03:06;;;;;;;13.70;3.85;;;;;;;10.57;100.00;100160.44;5018741;28;20213;-76
2022/12/24 08:05:36;;;;;;;16.50;3.28;;;;;;;10.54;100.00;100153.41;5016314;28;20206;-75
2022/12/24 08:08:02;;;;;;;15.48;4.00;;;;;;;10.52;100.00;100166.06;5015718;28;20576;-75
2022/12/24 08:10:29;;;;;;;15.57;4.97;;;;;;;10.55;100.00;100162.34;5016100;28;20206;-76
2022/12/24 08:12:55;;;;;;;17.48;3.83;;;;;;;10.55;100.00;100163.22;5016465;28;20290;-76
2022/12/24 08:15:22;;;;;;;11.18;3.78;;;;;;;10.55;100.00;100168.59;5016381;28;20210;-75
2022/12/24 08:17:48;;;;;;;14.85;4.18;;;;;;;10.57;100.00;100172.09;5015365;28;20692;-75
2022/12/24 08:20:16;;;;;;;9.48;3.88;;;;;;;10.57;100.00;100168.53;5016548;28;20205;-76
2022/12/24 08:22:44;;;;;;;15.02;4.80;;;;;;;10.54;100.00;100172.25;5016723;28;20646;-75
2022/12/24 08:25:10;;;;;;;11.35;4.47;;;;;;;10.56;100.00;100167.66;5016392;28;20203;-76
2022/12/24 08:27:37;;;;;;;15.57;3.53;;;;;;;10.59;100.00;100170.19;5015414;28;20206;-77
2022/12/24 08:30:04;;;;;;;14.57;4.45;;;;;;;10.62;100.00;100170.03;5016551;28;20203;-77
2022/12/24 08:32:31;;;;;;;15.80;4.22;;;;;;;10.63;100.00;100177.19;5015657;28;20610;-76
2022/12/24 08:34:58;;;;;;;12.52;3.65;;;;;;;10.55;100.00;100178.50;5016489;28;20202;-77
2022/12/24 08:37:25;;;;;;;16.90;3.92;;;;;;;10.33;100.00;100176.81;5017723;28;20209;-76
2022/12/24 08:39:53;;;;;;;18.00;4.95;;;;;;;10.20;100.00;100191.81;5016334;28;20244;-76
2022/12/24 08:42:19;;;;;;;19.67;4.80;;;;;;;10.09;100.00;100197.69;5016487;28;20230;-77
2022/12/24 08:44:46;;;;;;;23.08;6.68;;;;;;;9.97;100.00;100199.13;5019495;28;20553;-76
2022/12/24 08:47:13;;;;;;;20.05;5.22;;;;;;;9.92;100.00;100211.91;5024558;28;20212;-75
2022/12/24 08:49:40;;;;;;;14.82;5.38;;;;;;;9.87;100.00;100207.69;5024299;28;20210;-74
2022/12/24 08:52:06;;;;;;;17.50;5.22;;;;;;;9.77;100.00;100218.88;5023897;28;20214;-76
2022/12/24 08:54:33;;;;;;;21.25;5.15;;;;;;;9.80;100.00;100218.72;5023532;28;20203;-75
2022/12/24 08:57:01;;;;;;;15.73;5.95;;;;;;;9.81;100.00;100216.91;5022693;28;20210;-76
2022/12/24 08:59:27;;;;;;;19.30;5.25;;;;;;;9.87;100.00;100213.94;5015458;28;20210;-76
2022/12/24 09:01:54;;;;;;;20.42;5.25;;;;;;;9.84;100.00;100214.09;5014327;28;20242;-76
2022/12/24 09:04:20;;;;;;;19.05;4.80;;;;;;;9.81;100.00;100217.78;5015888;28;20206;-75
2022/12/24 09:06:47;;;;;;;18.67;5.55;;;;;;;9.76;100.00;100217.09;5015839;28;20702;-75
2022/12/24 09:09:13;;;;;;;22.50;6.05;;;;;;;9.85;100.00;100213.13;5014123;28;20213;-75
2022/12/24 09:11:40;;;;;;;23.58;7.07;;;;;;;9.86;100.00;100227.44;5014467;28;20562;-76
2022/12/24 09:14:08;;;;;;;19.20;5.75;;;;;;;9.92;100.00;100229.88;5016310;28;20203;-77
2022/12/24 09:16:34;;;;;;;17.73;5.32;;;;;;;9.99;100.00;100234.03;5016819;28;20203;-77
2022/12/24 09:19:01;;;;;;;20.40;5.95;;;;;;;10.00;100.00;100251.94;5015822;28;20203;-76
2022/12/24 09:21:27;;;;;;;16.40;5.43;;;;;;;9.89;100.00;100244.34;5021259;28;20227;-75
2022/12/24 09:23:54;;;;;;;25.35;7.28;;;;;;;9.93;100.00;100234.31;5021059;28;20686;-75
2022/12/24 09:26:22;;;;;;;22.80;6.97;;;;;;;9.89;100.00;100255.09;5018967;28;20233;-75
2022/12/24 09:28:49;;;;;;;21.75;6.10;;;;;;;9.90;100.00;100245.19;5019542;28;20241;-76
2022/12/24 09:31:17;;;;;;;18.48;5.75;;;;;;;9.85;100.00;100250.78;5016086;28;20218;-74
2022/12/24 09:33:46;;;;;;;18.52;6.95;;;;;;;9.91;100.00;100247.84;5015758;28;20228;-73
2022/12/24 09:36:14;;;;;;;19.98;6.10;;;;;;;9.95;100.00;100241.38;5014700;28;20210;-76
2022/12/24 09:38:40;;;;;;;19.80;5.93;;;;;;;10.08;100.00;100257.81;5013181;28;20202;-76
2022/12/24 09:41:16;;;;;;;18.38;5.85;;;;;;;10.09;100.00;100264.09;5013756;28;20230;-76
2022/12/24 09:43:47;;;;;;;20.73;5.30;;;;;;;10.15;100.00;100267.38;5013286;28;20225;-74
2022/12/24 09:46:21;;;;;;;23.85;7.03;;;;;;;10.20;100.00;100269.84;5014649;28;20235;-74
2022/12/24 09:48:52;;;;;;;15.77;5.32;;;;;;;10.25;100.00;100280.41;5015273;28;20216;-74
2022/12/24 09:51:26;;;;;;;19.17;6.10;;;;;;;10.31;100.00;100277.44;5014907;28;20232;-75
2022/12/24 09:53:57;;;;;;;19.25;6.70;;;;;;;10.34;100.00;100275.50;5014576;28;20217;-77
2022/12/24 09:56:26;;;;;;;23.77;7.45;;;;;;;10.41;100.00;100268.00;5013863;28;20199;-74
2022/12/24 09:58:58;;;;;;;23.92;7.13;;;;;;;10.53;100.00;100275.50;5014155;28;20203;-76
2022/12/24 10:01:30;;;;;;;40.35;8.70;;;;;;;10.49;100.00;100276.63;5013503;28;20232;-76
2022/12/24 10:04:07;;;;;;;18.50;7.03;;;;;;;10.52;100.00;100268.38;5014267;28;20187;-73
2022/12/24 10:06:38;;;;;;;16.80;6.57;;;;;;;10.43;100.00;100266.13;5014295;28;20206;-74
2022/12/24 10:09:16;;;;;;;24.42;6.60;;;;;;;10.61;100.00;100283.22;5013930;28;20201;-74
2022/12/24 10:11:50;;;;;;;19.42;6.10;;;;;;;10.67;100.00;100290.13;5013893;28;20236;-74
2022/12/24 10:14:33;;;;;;;17.45;5.05;;;;;;;10.62;100.00;100285.84;5013592;28;20186;-74
2022/12/24 10:17:24;;;;;;;22.80;5.10;;;;;;;10.50;100.00;100291.81;5012942;28;20191;-75
2022/12/24 10:20:00;;;;;;;23.13;5.80;;;;;;;10.47;100.00;100299.16;5013191;28;20206;-73
2022/12/24 10:22:32;;;;;;;15.65;5.68;;;;;;;10.61;100.00;100311.03;5015646;28;20225;-73
2022/12/24 10:25:04;;;;;;;19.88;6.10;;;;;;;10.77;100.00;100304.94;5015266;28;20564;-74
2022/12/24 10:27:36;;;;;;;14.93;5.28;;;;;;;10.98;100.00;100298.50;5014412;28;20211;-72
2022/12/24 10:30:13;;;;;;;29.63;7.05;;;;;;;11.12;100.00;100303.19;5014891;28;20272;-74
2022/12/24 10:32:42;;;;;;;15.77;6.10;;;;;;;11.27;100.00;100298.88;5013761;28;20281;-76
2022/12/24 10:35:20;;;;;;;26.13;6.43;;;;;;;11.19;100.00;100293.00;5013436;28;20218;-74
2022/12/24 10:37:48;;;;;;;22.63;6.07;;;;;;;11.21;100.00;100297.34;5014131;28;20234;-73
2022/12/24 10:40:29;;;;;;;19.13;5.57;;;;;;;11.10;100.00;100298.84;5015833;28;20420;-77
2022/12/24 10:42:56;;;;;;;14.57;4.40;;;;;;;11.18;100.00;100307.44;5015116;28;20297;-75
2022/12/24 10:45:25;;;;;;;18.35;5.22;;;;;;;11.20;100.00;100298.31;5013963;28;20209;-74
2022/12/24 10:47:57;;;;;;;23.27;5.15;;;;;;;11.18;100.00;100308.28;5012324;28;20203;-74
2022/12/24 10:50:32;;;;;;;15.43;5.32;;;;;;;11.11;100.00;100303.28;5013172;28;20641;-74
2022/12/24 10:53:11;;;;;;;13.05;4.82;;;;;;;11.18;100.00;100299.34;5014924;28;20277;-74
2022/12/24 10:55:38;;;;;;;12.70;4.90;;;;;;;11.13;100.00;100306.78;5020613;28;20203;-74
2022/12/24 10:58:07;;;;;;;21.83;6.18;;;;;;;11.14;100.00;100311.22;5023040;28;20199;-75
2022/12/24 11:00:35;;;;;;;15.55;4.72;;;;;;;11.14;100.00;100312.09;5025434;28;20206;-73
2022/12/24 11:03:20;;;;;;;16.13;5.25;;;;;;;11.11;100.00;100304.16;5022978;28;20282;-74
2022/12/24 11:05:49;;;;;;;17.15;4.88;;;;;;;11.20;100.00;100297.44;5018018;28;20205;-74
2022/12/24 11:08:19;;;;;;;25.20;5.85;;;;;;;11.15;100.00;100303.06;5016000;28;20241;-73
2022/12/24 11:10:55;;;;;;;19.83;5.32;;;;;;;11.14;100.00;100308.53;5016336;28;20198;-74
2022/12/24 11:13:25;;;;;;;19.40;5.82;;;;;;;11.16;100.00;100317.41;5019252;28;20619;-75
2022/12/24 11:16:01;;;;;;;26.48;5.93;;;;;;;11.14;100.00;100312.09;5018964;28;20209;-75
2022/12/24 11:18:31;;;;;;;14.50;4.40;;;;;;;11.19;100.00;100310.06;5017849;28;20559;-75
2022/12/24 11:20:59;;;;;;;15.70;4.60;;;;;;;11.24;100.00;100315.22;5017396;28;20229;-72
2022/12/24 11:23:27;;;;;;;15.43;5.53;;;;;;;11.35;100.00;100307.47;5016688;28;20206;-75
2022/12/24 11:25:54;;;;;;;16.58;5.63;;;;;;;11.41;100.00;100309.84;5015867;28;20614;-76
2022/12/24 11:28:23;;;;;;;11.00;4.15;;;;;;;11.60;100.00;100314.28;5015077;28;20275;-74
2022/12/24 11:31:00;;;;;;;14.35;3.42;;;;;;;11.83;100.00;100313.13;5015677;28;20269;-76
2022/12/24 11:33:27;;;;;;;13.85;3.78;;;;;;;11.91;100.00;100312.75;5015715;28;20205;-74